createdAt,value
2022-08-08T00:02:03.324Z,100562.97
2022-08-08T00:07:13.653Z,100559.69
2022-08-08T00:12:23.807Z,100570.63
2022-08-08T00:17:58.286Z,100564.53
2022-08-08T00:23:47.754Z,100563.84
2022-08-08T00:28:59.258Z,100583.53
2022-08-08T00:34:50.235Z,100577.44
2022-08-08T00:41:12.839Z,100596.16
2022-08-08T00:45:59.387Z,100598.53
2022-08-08T00:51:39.099Z,100623.69
2022-08-08T00:57:00.515Z,100612.56
2022-08-08T01:03:59.767Z,100614.13
2022-08-08T01:08:30.172Z,100627.44
2022-08-08T01:13:58.426Z,100632.19
2022-08-08T01:19:52.481Z,100633.88
2022-08-08T01:25:14.356Z,100640.81
2022-08-08T01:30:31.272Z,100651.22
2022-08-08T01:35:55.144Z,100643.91
2022-08-08T01:41:26.824Z,100634.09
2022-08-08T01:46:57.220Z,100644.75
2022-08-08T01:53:06.541Z,100638.50
2022-08-08T01:58:38.585Z,100638.50
2022-08-08T02:04:09.728Z,100638.25
2022-08-08T02:10:04.426Z,100618.88
2022-08-08T02:15:29.309Z,100628.16
2022-08-08T02:21:13.175Z,100629.09
2022-08-08T02:26:26.738Z,100637.13
2022-08-08T02:32:00.888Z,100630.53
2022-08-08T02:37:52.904Z,100628.94
2022-08-08T02:44:36.849Z,100636.41
2022-08-08T02:49:13.334Z,100642.00
2022-08-08T02:54:25.948Z,100649.41
2022-08-08T03:00:31.982Z,100649.88
2022-08-08T03:05:57.496Z,100650.19
2022-08-08T03:11:31.821Z,100652.25
2022-08-08T03:16:54.933Z,100636.31
2022-08-08T03:21:59.762Z,100634.41
2022-08-08T03:27:13.128Z,100653.59
2022-08-08T03:32:34.651Z,100657.25
2022-08-08T03:37:59.871Z,100645.63
2022-08-08T03:43:15.636Z,100659.78
2022-08-08T03:49:09.911Z,100675.19
2022-08-08T03:53:47.582Z,100677.09
2022-08-08T03:58:52.828Z,100688.91
2022-08-08T04:03:58.427Z,100689.66
2022-08-08T04:09:10.288Z,100700.94
2022-08-08T04:14:33.988Z,100682.19
2022-08-08T04:19:36.697Z,100685.78
2022-08-08T04:24:40.197Z,100689.97
2022-08-08T04:29:55.386Z,100691.09
2022-08-08T04:35:04.438Z,100703.34
2022-08-08T04:40:12.369Z,100706.28
2022-08-08T04:45:26.966Z,100715.88
2022-08-08T04:50:38.506Z,100736.81
2022-08-08T04:55:47.490Z,100763.19
2022-08-08T05:00:57.697Z,100785.47
2022-08-08T05:06:01.303Z,100803.91
2022-08-08T05:11:22.751Z,100802.66
2022-08-08T05:16:50.925Z,100822.47
2022-08-08T05:21:58.068Z,100849.50
2022-08-08T05:27:03.659Z,100851.50
2022-08-08T05:32:07.764Z,100867.31
2022-08-08T05:37:18.794Z,100868.56
2022-08-08T05:42:42.824Z,100886.16
2022-08-08T05:47:59.876Z,100897.34
2022-08-08T05:53:23.207Z,100921.56
2022-08-08T05:58:33.763Z,100945.44
2022-08-08T06:03:40.257Z,100946.91
2022-08-08T06:08:54.644Z,100970.84
2022-08-08T06:13:57.989Z,101004.25
2022-08-08T06:19:01.855Z,101015.22
2022-08-08T06:24:13.999Z,101021.53
2022-08-08T06:29:56.895Z,101053.19
2022-08-08T06:36:04.377Z,101063.41
2022-08-08T06:40:31.966Z,101081.44
2022-08-08T06:45:38.882Z,101127.88
2022-08-08T06:50:44.993Z,101168.00
2022-08-08T06:56:02.615Z,101189.22
2022-08-08T07:02:18.033Z,101195.06
2022-08-08T07:06:43.417Z,101223.53
2022-08-08T07:11:51.740Z,101222.25
2022-08-08T07:17:09.549Z,101241.25
2022-08-08T07:22:24.736Z,101261.56
2022-08-08T07:27:35.130Z,101239.59
2022-08-08T07:32:51.772Z,101251.06
2022-08-08T07:38:09.727Z,101259.19
2022-08-08T07:43:32.411Z,101272.91
2022-08-08T07:48:38.981Z,101297.44
2022-08-08T07:54:03.543Z,101292.69
2022-08-08T07:59:15.609Z,101311.34
2022-08-08T08:04:29.087Z,101299.63
2022-08-08T08:09:39.270Z,101301.75
2022-08-08T08:15:02.995Z,101335.81
2022-08-08T08:20:10.216Z,101325.44
2022-08-08T08:25:12.664Z,101334.34
2022-08-08T08:30:19.176Z,101317.00
2022-08-08T08:35:29.696Z,101304.53
2022-08-08T08:40:48.640Z,101320.66
2022-08-08T08:45:57.455Z,101306.22
2022-08-08T08:51:02.051Z,101334.31
2022-08-08T08:56:06.943Z,101303.91
2022-08-08T09:01:15.013Z,101341.28
2022-08-08T09:06:33.553Z,101310.09
2022-08-08T09:11:47.544Z,101334.28
2022-08-08T09:17:09.682Z,101326.72
2022-08-08T09:22:26.729Z,101359.53
2022-08-08T09:27:56.844Z,101368.34
2022-08-08T09:33:20.785Z,101357.63
2022-08-08T09:38:25.385Z,101340.47
2022-08-08T09:44:05.223Z,101351.16
2022-08-08T09:49:42.556Z,101342.59
2022-08-08T09:54:44.823Z,101326.47
2022-08-08T10:00:07.561Z,101331.03
2022-08-08T10:05:25.102Z,101341.06
2022-08-08T10:10:50.069Z,101335.91
2022-08-08T10:15:59.035Z,101346.28
2022-08-08T10:21:23.030Z,101380.88
2022-08-08T10:26:59.752Z,101369.94
2022-08-08T10:32:21.564Z,101387.09
2022-08-08T10:37:31.652Z,101394.19
2022-08-08T10:42:38.308Z,101420.84
2022-08-08T10:47:55.373Z,101415.81
2022-08-08T10:53:12.593Z,101427.97
2022-08-08T10:58:15.569Z,101423.47
2022-08-08T11:03:52.374Z,101492.75
2022-08-08T11:08:53.051Z,101524.09
2022-08-08T11:14:02.859Z,101562.28
2022-08-08T11:19:05.435Z,101550.91
2022-08-08T11:24:13.684Z,101492.31
2022-08-08T11:29:17.386Z,101467.56
2022-08-08T11:34:23.291Z,101494.78
2022-08-08T11:39:37.173Z,101479.88
2022-08-08T11:44:39.681Z,101497.06
2022-08-08T11:49:44.752Z,101474.38
2022-08-08T11:54:51.146Z,101510.38
2022-08-08T12:00:05.892Z,101492.81
2022-08-08T12:05:18.267Z,101514.97
2022-08-08T12:10:27.503Z,101553.19
2022-08-08T12:15:42.473Z,101575.16
2022-08-08T12:20:54.230Z,101635.91
2022-08-08T12:25:56.717Z,101628.03
2022-08-08T12:31:05.918Z,101659.84
2022-08-08T12:36:13.983Z,101663.91
2022-08-08T12:41:33.406Z,101637.38
2022-08-08T12:46:37.048Z,101646.16
2022-08-08T12:51:40.905Z,101619.00
2022-08-08T12:56:54.586Z,101606.66
2022-08-08T13:01:59.637Z,101593.19
2022-08-08T13:07:11.858Z,101611.66
2022-08-08T13:12:39.661Z,101637.72
2022-08-08T13:18:09.407Z,101702.84
2022-08-08T13:23:30.992Z,101717.31
2022-08-08T13:28:29.304Z,101720.03
2022-08-08T13:33:42.364Z,101662.44
2022-08-08T13:38:45.154Z,101668.78
2022-08-08T13:43:47.719Z,101663.00
2022-08-08T13:49:12.284Z,101684.47
2022-08-08T13:54:21.837Z,101703.66
2022-08-08T13:59:49.138Z,101653.94
2022-08-08T14:04:53.925Z,101691.50
2022-08-08T14:10:12.057Z,101620.75
2022-08-08T14:15:31.704Z,101595.19
2022-08-08T14:21:00.233Z,101636.69
2022-08-08T14:26:11.399Z,101650.94
2022-08-08T14:31:23.555Z,101621.38
2022-08-08T14:36:38.736Z,101658.56
2022-08-08T14:41:53.611Z,101695.56
2022-08-08T14:47:00.137Z,101707.66
2022-08-08T14:52:09.219Z,101732.47
2022-08-08T14:57:12.401Z,101693.91
2022-08-08T15:02:25.655Z,101697.59
2022-08-08T15:07:39.389Z,101728.53
2022-08-08T15:12:48.263Z,101751.91
2022-08-08T15:17:50.178Z,101721.09
2022-08-08T15:22:52.718Z,101708.91
2022-08-08T15:28:04.688Z,101677.75
2022-08-08T15:33:35.130Z,101694.66
2022-08-08T15:38:40.547Z,101633.25
2022-08-08T15:44:00.853Z,101634.41
2022-08-08T15:49:04.172Z,101646.00
2022-08-08T15:54:05.997Z,101635.69
2022-08-08T15:59:20.240Z,101629.03
2022-08-08T16:04:46.598Z,101619.06
2022-08-08T16:13:15.514Z,101590.00
2022-08-08T16:15:20.964Z,101573.91
2022-08-08T16:20:24.546Z,101561.63
2022-08-08T16:25:45.882Z,101541.25
2022-08-08T16:31:08.095Z,101545.88
2022-08-08T16:36:12.989Z,101561.75
2022-08-08T16:41:18.302Z,101576.50
2022-08-08T16:46:38.514Z,101559.91
2022-08-08T16:55:06.463Z,101554.53
2022-08-08T16:57:22.711Z,101549.19
2022-08-08T17:02:38.623Z,101521.75
2022-08-08T17:07:42.062Z,101490.59
2022-08-08T17:12:52.548Z,101500.84
2022-08-08T17:18:02.997Z,101506.63
2022-08-08T17:23:18.237Z,101494.16
2022-08-08T17:28:34.532Z,101482.19
2022-08-08T17:34:37.555Z,101485.78
2022-08-08T17:39:05.535Z,101509.13
2022-08-08T17:44:20.570Z,101506.59
2022-08-08T17:49:42.643Z,101501.72
2022-08-08T17:54:46.362Z,101478.25
2022-08-08T17:59:48.037Z,101467.06
2022-08-08T18:04:51.076Z,101404.41
2022-08-08T18:09:53.116Z,101279.00
2022-08-08T18:14:54.773Z,101193.97
2022-08-08T18:20:37.149Z,101155.16
2022-08-08T18:25:19.050Z,101115.09
2022-08-08T18:30:21.202Z,101087.25
2022-08-08T18:35:30.583Z,101050.47
2022-08-08T18:40:45.766Z,101016.75
2022-08-08T18:46:55.691Z,100991.75
2022-08-08T18:51:33.334Z,100962.72
2022-08-08T18:56:33.813Z,100951.38
2022-08-08T19:02:28.116Z,100929.69
2022-08-08T19:06:58.711Z,100879.88
2022-08-08T19:12:02.934Z,100864.09
2022-08-08T19:17:04.497Z,100847.38
2022-08-08T19:22:06.047Z,100844.56
2022-08-08T19:27:10.704Z,100815.53
2022-08-08T19:32:13.040Z,100785.56
2022-08-08T19:37:43.454Z,100760.56
2022-08-08T19:42:46.203Z,100729.63
2022-08-08T19:47:55.190Z,100691.53
2022-08-08T19:52:59.562Z,100667.72
2022-08-08T19:58:01.652Z,100625.50
2022-08-08T20:03:15.002Z,100593.81
2022-08-08T20:08:31.863Z,100562.34
2022-08-08T20:14:32.119Z,100529.78
2022-08-08T20:18:56.649Z,100516.63
2022-08-08T20:24:03.254Z,100495.94
2022-08-08T20:29:08.681Z,100480.19
2022-08-08T20:34:30.138Z,100466.91
2022-08-08T20:39:39.262Z,100488.94
2022-08-08T20:44:53.248Z,100521.78
2022-08-08T20:49:57.702Z,100546.59
2022-08-08T20:55:01.110Z,100556.06
2022-08-08T21:00:05.338Z,100551.91
2022-08-08T21:05:08.531Z,100585.53
2022-08-08T21:10:12.886Z,100635.81
2022-08-08T21:15:16.194Z,100657.78
2022-08-08T21:20:38.646Z,100651.13
2022-08-08T21:25:40.178Z,100705.00
2022-08-08T21:30:41.728Z,100711.91
2022-08-08T21:36:16.950Z,100693.31
2022-08-08T21:41:04.978Z,100702.72
2022-08-08T21:48:06.281Z,100712.13
2022-08-08T21:54:36.542Z,100713.19
2022-08-08T21:56:52.085Z,100714.78
2022-08-08T22:01:55.934Z,100706.06
2022-08-08T22:06:59.505Z,100705.16
2022-08-08T22:12:08.801Z,100706.25
2022-08-08T22:17:11.577Z,100714.19
2022-08-08T22:22:15.142Z,100696.66
2022-08-08T22:27:16.858Z,100714.28
2022-08-08T22:32:38.443Z,100712.34
2022-08-08T22:37:49.775Z,100717.56
2022-08-08T22:42:57.532Z,100728.25
2022-08-08T22:47:59.670Z,100744.75
2022-08-08T22:54:30.756Z,100746.84
2022-08-08T22:58:27.175Z,100758.97
2022-08-08T23:03:34.010Z,100745.66
2022-08-08T23:08:55.919Z,100759.88
2022-08-08T23:14:01.082Z,100766.94
2022-08-08T23:19:03.371Z,100751.31
2022-08-08T23:24:05.385Z,100757.84
2022-08-08T23:29:10.969Z,100776.19
2022-08-08T23:34:18.836Z,100764.25
2022-08-08T23:39:21.304Z,100762.59
2022-08-08T23:44:28.281Z,100777.81
2022-08-08T23:49:31.042Z,100775.03
2022-08-08T23:54:42.970Z,100786.88
